Terminal Aerodrome Forecast
Issued by NWS

Home | Current Version | Previous Version | Text Only | Print | Product List | Glossary On
Versions: 1 2 3 4 5 6 7 8 9 10 11 12 13 14 15 16
000
FTUS43 KIND 282300
TAFBMG
TAF
KBMG 282321Z 2900/2924 15010KT P6SM SCT100 BKN250
     FM290900 17013KT P6SM SCT050 BKN080
     FM291300 19013KT P6SM BKN015 OVC050
     FM291600 22012KT 5SM BR BKN008 OVC015
     FM291900 28015G23KT P6SM OVC008
     FM292100 30015G23KT P6SM OVC015
      AMD LTD TO CLD VIS AND WIND 2902/2914=

USA.gov is the U.S. government's official web portal to all federal, state and local government web resources and services.